Flight Track Log - Related Links

Times and Time Zones

All times are in EDT time to prevent confusion due to time zone crossing. See the QFA1073 flight status page for this flight to view local times or setup timezone preferences in your user account.


Time Position Orientation Groundspeed Altitude Reporting Facility
EDT Latitude Longitude Course Direction KTS MPH feet Rate Location/Type
Mon 01:23:10 AM -17.9496 122.2277 199° South 16,300  Level Aus ATC (Calculated)
Mon 01:24:03 AM -18.0106 122.2346 199° South 16,300 609 Level Aus ATC (Calculated)
Mon 01:26:00 AM -18.1890 122.0902 218° Southwest  Level FlightAware Approximate
Mon 01:27:00 AM -18.2804 122.0160 218° Southwest  Level FlightAware Approximate
Mon 01:27:08 AM -18.2874 122.2660 201° Southwest 16,300  Level Aus ATC (Calculated)
Mon 01:28:00 AM -18.2874 122.2660 201° Southwest 16,300 694 Level Aus ATC (Calculated)
Mon 01:29:00 AM -18.3152 122.1490 256° West  Level FlightAware Approximate
Mon 01:30:00 AM -18.4221 122.1056 201° Southwest  Level Estimated
Mon 01:30:03 AM -18.5386 122.2453 203° Southwest 36,000  Level Aus ATC (Calculated)
Mon 01:32:00 AM -18.7251 122.1154 213° Southwest  Level FlightAware Approximate
Mon 01:33:00 AM -18.8207 122.0487 213° Southwest  Level FlightAware Approximate
Mon 01:33:27 AM -18.9432 122.0937 204° Southwest 36,000  Level Aus ATC (Calculated)
Mon 01:34:00 AM -18.9162 121.9819 213° Southwest  Level FlightAware Approximate
Mon 01:35:00 AM -19.0817 121.9761 219° Southwest  Level FlightAware Approximate
Mon 01:35:43 AM -19.1960 121.9985 204° Southwest 36,000  Level Aus ATC (Calculated)
Mon 01:37:00 AM -19.3007 121.8892 225° Southwest  Level FlightAware Approximate
Mon 01:37:27 AM -19.3982 121.9222 204° Southwest 36,000  Level Aus ATC (Calculated)
Mon 01:38:00 AM -19.3823 121.8039 225° Southwest  Level FlightAware Approximate
Mon 01:39:00 AM -19.5070 121.7733 232° Southwest  Level FlightAware Approximate
Mon 01:40:00 AM -19.5771 121.6772 232° Southwest  Level FlightAware Approximate
Mon 01:41:00 AM -19.6472 121.5810 232° Southwest  Level FlightAware Approximate
Mon 01:41:10 AM -19.8530 121.7497 206° Southwest 36,000  Level Aus ATC (Calculated)
Mon 01:43:00 AM -20.0476 121.6657 201° Southwest  Level Estimated
Mon 01:43:22 AM -20.1078 121.6442 207° Southwest 36,000  Level Aus ATC (Calculated)
Mon 01:44:29 AM -20.2133 121.5870 207° Southwest 36,000  Level Aus ATC (Calculated)
Mon 01:45:00 AM -20.2746 121.5538 207° Southwest  Level FlightAware Approximate
Mon 01:45:25 AM -20.3188 121.5298 207° Southwest 36,000  Level Aus ATC (Calculated)
Mon 01:46:00 AM -20.3681 121.5029 207° Southwest  Level FlightAware Approximate
Mon 01:47:00 AM -20.4804 121.4418 207° Southwest  Level FlightAware Approximate
Mon 01:48:00 AM -20.5824 121.3862 207° Southwest  Level FlightAware Approximate
Mon 01:49:00 AM -20.6885 121.3283 207° Southwest  Level FlightAware Approximate
Mon 01:49:23 AM -20.7933 121.2710 207° Southwest 36,000  Level Aus ATC (Calculated)
Mon 01:50:00 AM -20.7945 121.2704 207° Southwest  Level FlightAware Approximate
Mon 01:51:00 AM -20.9581 121.1807 207° Southwest  Level FlightAware Approximate
Mon 01:52:00 AM -21.0601 121.1247 207° Southwest  Level FlightAware Approximate
Mon 01:53:00 AM -21.1620 121.0687 207° Southwest  Level FlightAware Approximate
Mon 01:54:00 AM -21.2640 121.0126 207° Southwest  Level FlightAware Approximate
Mon 01:54:22 AM -21.3199 120.9817 28° Northeast 36,000  Level Aus ATC (Calculated)
Mon 01:55:31 AM -21.3070 120.9890 207° Southwest 451 519 36,000 -61 Level FlightAware ADS-B
Mon 01:56:00 AM -21.4864 120.8898 207° Southwest  Level FlightAware Approximate
Mon 01:56:01 AM -21.3604 120.9566 207° Southwest 448 516 35,900  Level Aus ATC (RADAR)
Mon 01:56:16 AM -21.3884 120.9415 207° Southwest 448 516 35,900 353 Level Aus ATC (RADAR)
Mon 01:56:18 AM -21.3870 120.9450 207° Southwest 450 518 36,000 158 Climbing FlightAware ADS-B
Mon 01:56:54 AM -21.4430 120.9140 207° Southwest 450 518 36,000  Level FlightAware ADS-B
Mon 01:57:29 AM -21.5270 120.8670 207° Southwest 448 516 36,000  Level FlightAware ADS-B
Mon 01:58:05 AM -21.5940 120.8300 207° Southwest 448 516 36,000  Level FlightAware ADS-B
Mon 01:58:54 AM -21.6740 120.7860 207° Southwest 447 514 36,000  Level FlightAware ADS-B
Mon 01:59:29 AM -21.7490 120.7440 207° Southwest 445 512 36,000  Level FlightAware ADS-B
Mon 02:00:03 AM -21.8080 120.7110 207° Southwest 445 512 36,000  Level FlightAware ADS-B
Mon 02:00:58 AM -21.9030 120.6590 207° Southwest 445 512 36,000  Level FlightAware ADS-B
Mon 02:01:34 AM -21.9590 120.6280 207° Southwest 445 512 36,000  Level FlightAware ADS-B
Mon 02:02:10 AM -22.0150 120.5980 206° Southwest 445 512 36,000  Level FlightAware ADS-B
Mon 02:02:46 AM -22.0710 120.5670 207° Southwest 445 512 36,000  Level FlightAware ADS-B
Mon 02:03:22 AM -22.1270 120.5360 207° Southwest 445 512 36,000  Level FlightAware ADS-B
Mon 02:04:02 AM -22.2440 120.4690 208° Southwest 447 514 36,000  Level FlightAware ADS-B
Mon 02:04:38 AM -22.3000 120.4380 207° Southwest 447 514 36,000  Level FlightAware ADS-B
Mon 02:05:14 AM -22.3560 120.4070 207° Southwest 447 514 36,000  Level FlightAware ADS-B
Mon 02:05:44 AM -22.4370 120.3600 207° Southwest 445 512 36,000  Level FlightAware ADS-B
Mon 02:05:45 AM -22.4353 120.3597 207° Southwest 444 511 36,000  Level Aus ATC (RADAR)
Mon 02:06:22 AM -22.4960 120.3270 207° Southwest 445 512 36,000  Level FlightAware ADS-B
Mon 02:06:58 AM -22.5530 120.2960 207° Southwest 445 512 36,000  Level FlightAware ADS-B
Mon 02:07:34 AM -22.6090 120.2650 207° Southwest 445 512 36,000  Level FlightAware ADS-B
Mon 02:08:11 AM -22.6660 120.2340 207° Southwest 445 512 36,000  Level FlightAware ADS-B
Mon 02:08:48 AM -22.7240 120.2020 207° Southwest 445 512 36,000  Level FlightAware ADS-B
Mon 02:09:24 AM -22.7800 120.1710 207° Southwest 445 512 36,000  Level FlightAware ADS-B
Mon 02:10:00 AM -22.8360 120.1400 207° Southwest 445 512 36,000  Level FlightAware ADS-B
Mon 02:10:36 AM -22.8930 120.1090 207° Southwest 445 512 36,000  Level FlightAware ADS-B
Mon 02:11:20 AM -22.9610 120.0710 207° Southwest 445 512 36,000  Level FlightAware ADS-B
Mon 02:11:56 AM -23.0170 120.0400 207° Southwest 445 512 36,000  Level FlightAware ADS-B
Mon 02:12:33 AM -23.0750 120.0080 207° Southwest 445 512 36,000  Level FlightAware ADS-B
Mon 02:13:09 AM -23.1310 119.9770 207° Southwest 445 512 36,000  Level FlightAware ADS-B
Mon 02:13:45 AM -23.1870 119.9450 208° Southwest 445 512 36,000  Level FlightAware ADS-B
Mon 02:14:21 AM -23.2430 119.9140 207° Southwest 445 512 36,000  Level FlightAware ADS-B
Mon 02:14:57 AM -23.3000 119.8830 207° Southwest 445 512 36,000  Level FlightAware ADS-B
Mon 02:15:33 AM -23.3560 119.8520 207° Southwest 445 512 36,000 -51 Level FlightAware ADS-B
Mon 02:16:54 AM -23.6713 119.6992 207° Southwest 463 533 35,900 -38 Descending Aus ATC (RADAR)
Mon 02:18:09 AM -23.8123 119.6400 201° Southwest 437 503 35,900  Level Aus ATC (RADAR)
Mon 02:18:29 AM -23.8512 119.6237 201° Southwest 443 510 35,900  Level Aus ATC (RADAR)
Mon 02:19:53 AM -24.0123 119.5564 201° Southwest 436 502 35,900  Level Aus ATC (RADAR)
Mon 02:22:24 AM -24.2942 119.4374 201° Southwest 434 499 35,900  Level Aus ATC (RADAR)
Mon 02:23:43 AM -24.4427 119.3746 201° Southwest 431 496 35,900  Level Aus ATC (RADAR)
Mon 02:23:58 AM -24.4698 119.3635 200° South 426 490 35,900  Level Aus ATC (RADAR)
Mon 02:25:28 AM -24.6356 119.2936 201° Southwest 421 484 35,900  Level Aus ATC (RADAR)
Mon 02:27:58 AM -24.9177 119.1733 201° Southwest 438 504 35,900  Level Aus ATC (RADAR)
Mon 02:29:18 AM -25.0680 119.1096 201° Southwest 436 502 35,900  Level Aus ATC (RADAR)
Mon 02:29:33 AM -25.0960 119.0975 201° Southwest 434 499 35,900 58 Level Aus ATC (RADAR)
Mon 02:31:02 AM -25.2636 119.0251 201° Southwest 433 498 36,000 23 Climbing Aus ATC (RADAR)
Mon 02:33:57 AM -25.5916 118.8844 201° Southwest 436 502 36,000  Level Aus ATC (RADAR)
Mon 02:35:37 AM -25.7813 118.8014 202° Southwest 439 505 36,000 -30 Level Aus ATC (RADAR)
Mon 02:37:17 AM -25.9684 118.7207 201° Southwest 436 502 35,900  Descending Aus ATC (RADAR)
Mon 02:38:46 AM -26.1363 118.6474 201° Southwest 432 497 36,000 34 Climbing Aus ATC (RADAR)
Mon 02:40:11 AM -26.2949 118.5802 201° Southwest 429 494 36,000  Level Aus ATC (RADAR)
Mon 02:42:06 AM -26.5092 118.4911 200° South 428 493 36,000  Level Aus ATC (RADAR)
Mon 02:46:09 AM -26.9490 118.2945 202° Southwest 38,000  Climbing Aus ATC (Calculated)
Mon 02:47:41 AM -27.1303 118.2129 203° Southwest 38,000 -200 Level Aus ATC (Calculated)
Mon 02:48:00 AM -27.1605 118.2006 201° Southwest  Level Estimated
Mon 02:49:00 AM -27.2642 118.1525 202° Southwest  Level FlightAware Approximate
Mon 02:50:00 AM -27.3659 118.1065 202° Southwest  Level FlightAware Approximate
Mon 02:51:00 AM -27.4676 118.0605 202° Southwest  Level FlightAware Approximate
Mon 02:51:06 AM -27.5720 118.0130 203° Southwest 38,000  Level Aus ATC (Calculated)
Mon 02:52:43 AM -27.7866 117.9153 204° Southwest 38,000 -396 Level Aus ATC (Calculated)
Mon 02:54:00 AM -27.9329 117.8484 202° Southwest  Level FlightAware Approximate
Mon 02:55:00 AM -27.8189 117.9005 22° Northeast  Level FlightAware Approximate
Mon 02:56:00 AM -27.9329 117.8484 202° Southwest  Level FlightAware Approximate
Mon 02:56:09 AM -28.0653 117.7728 202° Southwest 421 484 36,000  Level Aus ATC (RADAR)
Mon 02:59:24 AM -28.4143 117.6138 202° Southwest 416 479 36,000  Level Aus ATC (RADAR)
Mon 03:00:44 AM -28.5591 117.5518 201° Southwest 417 480 36,000  Level Aus ATC (RADAR)
Mon 03:00:59 AM -28.5860 117.5392 202° Southwest 419 482 36,000  Level Aus ATC (RADAR)
Mon 03:01:15 AM -28.6232 117.5344 202° Southwest 419 482 36,000  Level FlightAware ADS-B
Mon 03:01:45 AM -28.6773 117.5094 202° Southwest 419 482 36,000  Level FlightAware ADS-B
Mon 03:02:15 AM -28.7310 117.4848 202° Southwest 418 481 36,000  Level FlightAware ADS-B
Mon 03:02:45 AM -28.7854 117.4599 202° Southwest 418 481 36,000  Level FlightAware ADS-B
Mon 03:03:15 AM -28.8388 117.4352 202° Southwest 418 481 36,000  Level FlightAware ADS-B
Mon 03:03:45 AM -28.8917 117.4108 202° Southwest 418 481 36,000  Level FlightAware ADS-B
Mon 03:04:16 AM -28.9481 117.3849 202° Southwest 417 480 36,000  Level FlightAware ADS-B
Mon 03:04:46 AM -29.0015 117.3603 202° Southwest 415 478 36,000  Level FlightAware ADS-B
Mon 03:05:16 AM -29.0555 117.3354 202° Southwest 415 478 36,000  Level FlightAware ADS-B
Mon 03:05:46 AM -29.1085 117.3110 202° Southwest 415 478 36,000  Level FlightAware ADS-B
Mon 03:06:16 AM -29.1615 117.2863 202° Southwest 415 478 36,000  Level FlightAware ADS-B
Mon 03:06:46 AM -29.2157 117.2612 202° Southwest 415 478 36,000  Level FlightAware ADS-B
Mon 03:07:26 AM -29.2868 117.2283 202° Southwest 415 478 36,000  Level FlightAware ADS-B
Mon 03:08:06 AM -29.3575 117.1955 202° Southwest 414 476 36,000  Level FlightAware ADS-B
Mon 03:08:38 AM -29.4144 117.1689 202° Southwest 414 476 36,000  Level FlightAware ADS-B
Mon 03:09:08 AM -29.4673 117.1443 202° Southwest 414 476 36,000  Level FlightAware ADS-B
Mon 03:09:38 AM -29.5206 117.1193 202° Southwest 414 476 36,000  Level FlightAware ADS-B
Mon 03:10:08 AM -29.5742 117.0942 202° Southwest 416 479 36,000  Level FlightAware ADS-B
Mon 03:10:38 AM -29.6274 117.0694 202° Southwest 417 480 36,000  Level FlightAware ADS-B
Mon 03:11:08 AM -29.6810 117.0443 202° Southwest 417 480 36,000  Level FlightAware ADS-B
Mon 03:11:38 AM -29.7351 117.0192 202° Southwest 418 481 36,000  Level FlightAware ADS-B
Mon 03:12:08 AM -29.7884 116.9943 202° Southwest 416 479 36,000  Level FlightAware ADS-B
Mon 03:12:38 AM -29.8424 116.9690 202° Southwest 414 476 36,000  Level FlightAware ADS-B
Mon 03:13:08 AM -29.8948 116.9442 202° Southwest 406 467 36,000  Level FlightAware ADS-B
Mon 03:13:38 AM -29.9479 116.9190 202° Southwest 405 466 36,000  Level FlightAware ADS-B
Mon 03:14:08 AM -30.0013 116.8938 202° Southwest 403 464 36,000  Level FlightAware ADS-B
Mon 03:14:42 AM -30.0553 116.8635 202° Southwest 411 473 36,000  Level Aus ATC (RADAR)
Mon 03:14:51 AM -30.0753 116.8589 202° Southwest 403 464 36,000  Level FlightAware ADS-B
Mon 03:15:30 AM -30.1449 116.8259 202° Southwest 402 463 36,000  Level FlightAware ADS-B
Mon 03:16:00 AM -30.1967 116.8013 202° Southwest 403 464 36,000  Level FlightAware ADS-B
Mon 03:16:30 AM -30.2501 116.7760 202° Southwest 403 464 36,000  Level FlightAware ADS-B
Mon 03:17:10 AM -30.3208 116.7427 202° Southwest 403 464 36,000  Level FlightAware ADS-B
Mon 03:17:40 AM -30.3725 116.7179 202° Southwest 402 463 36,000  Level FlightAware ADS-B
Mon 03:18:12 AM -30.4291 116.6908 202° Southwest 401 461 36,000 -871 Level FlightAware ADS-B
Mon 03:18:42 AM -30.4812 116.6662 202° Southwest 402 463 35,100 -2,300 Descending FlightAware ADS-B
Mon 03:19:12 AM -30.5325 116.6417 202° Southwest 402 463 33,700 -3,100 Descending FlightAware ADS-B
Mon 03:19:42 AM -30.5862 116.6189 200° South 410 472 32,000 -3,600 Descending FlightAware ADS-B
Mon 03:20:12 AM -30.6427 116.5967 199° South 424 488 30,100 -3,600 Descending FlightAware ADS-B
Mon 03:20:42 AM -30.7001 116.5743 199° South 442 509 28,400 -3,000 Descending FlightAware ADS-B
Mon 03:21:14 AM -30.7621 116.5504 198° South 444 511 27,000 -2,516 Descending FlightAware ADS-B
Mon 03:21:44 AM -30.8196 116.5280 198° South 444 511 25,800 -2,200 Descending FlightAware ADS-B
Mon 03:22:14 AM -30.8801 116.5042 199° South 442 509 24,800 -2,200 Descending FlightAware ADS-B
Mon 03:22:44 AM -30.9394 116.4812 198° South 456 525 23,600 -2,600 Descending FlightAware ADS-B
Mon 03:23:14 AM -31.0005 116.4574 198° South 455 524 22,200 -2,800 Descending FlightAware ADS-B
Mon 03:23:44 AM -31.0611 116.4339 198° South 460 529 20,800 -2,700 Descending FlightAware ADS-B
Mon 03:24:14 AM -31.1193 116.4112 198° South 442 509 19,500 -2,656 Descending FlightAware ADS-B
Mon 03:24:45 AM -31.1806 116.3871 199° South 440 506 18,100 -2,754 Descending FlightAware ADS-B
Mon 03:25:15 AM -31.2386 116.3642 199° South 426 490 16,700 -1,800 Descending FlightAware ADS-B
Mon 03:25:45 AM -31.2927 116.3428 199° South 404 465 16,300 -900 Descending FlightAware ADS-B
Mon 03:26:15 AM -31.3454 116.3221 199° South 374 430 15,800 -800 Descending FlightAware ADS-B
Mon 03:26:45 AM -31.3938 116.3030 199° South 355 409 15,500 -700 Descending FlightAware ADS-B
Mon 03:27:15 AM -31.4369 116.2810 203° Southwest 319 367 15,100 -968 Descending FlightAware ADS-B
Mon 03:27:47 AM -31.4710 116.2590 209° Southwest 314 361 14,500 -1,463 Descending FlightAware ADS-B
Mon 03:27:56 AM -31.4905 116.2466 208° Southwest 313 360 14,100 -1,625 Descending FlightAware ADS-B
Mon 03:28:35 AM -31.5405 116.2145 209° Southwest 314 361 13,200 -1,457 Descending FlightAware ADS-B
Mon 03:29:06 AM -31.5797 116.1894 209° Southwest 311 358 12,400 -1,475 Descending FlightAware ADS-B
Mon 03:29:36 AM -31.6159 116.1661 209° Southwest 298 343 11,700 -1,400 Descending FlightAware ADS-B
Mon 03:30:06 AM -31.6540 116.1417 209° Southwest 299 344 11,000 -1,352 Descending FlightAware ADS-B
Mon 03:30:47 AM -31.7022 116.1108 209° Southwest 283 326 10,100 -1,448 Descending FlightAware ADS-B
Mon 03:31:04 AM -31.7230 116.0974 209° Southwest 280 322 9,600 -1,459 Descending FlightAware ADS-B
Mon 03:31:24 AM -31.7456 116.0838 207° Southwest 280 322 9,200 -1,364 Descending FlightAware ADS-B
Mon 03:31:48 AM -31.7776 116.0728 196° South 283 326 8,600 -1,385 Descending FlightAware ADS-B
Mon 03:32:16 AM -31.8147 116.0653 190° South 289 333 8,000 -1,231 Descending FlightAware ADS-B
Mon 03:32:27 AM -31.8297 116.0655 180° South 295 339 7,800 -1,385 Descending FlightAware ADS-B
Mon 03:32:42 AM -31.8487 116.0708 167° South 297 342 7,400 -1,333 Descending FlightAware ADS-B
Mon 03:33:12 AM -31.8850 116.0890 157° South 302 348 6,800 -1,355 Descending FlightAware ADS-B
Mon 03:33:13 AM -31.8897 116.0917 154° Southeast 302 348 6,700 -811 Descending FlightAware ADS-B
Mon 03:33:49 AM -31.9328 116.1138 157° South 284 327 6,300 -643 Descending FlightAware ADS-B
Mon 03:34:09 AM -31.9575 116.1262 157° South 277 319 6,100 -1,077 Descending FlightAware ADS-B
Mon 03:34:28 AM -31.9809 116.1278 177° South 261 300 5,600 -1,135 Descending FlightAware ADS-B
Mon 03:34:46 AM -32.0005 116.1193 200° South 245 282 5,400 -960 Descending FlightAware ADS-B
Mon 03:35:18 AM -32.0339 116.1039 201° Southwest 230 265 4,800 -1,263 Descending FlightAware ADS-B
Mon 03:35:43 AM -32.0589 116.0913 203° Southwest 214 246 4,200 -1,235 Descending FlightAware ADS-B
Mon 03:35:52 AM -32.0644 116.0841 228° Southwest 194 223 4,100 -750 Descending FlightAware ADS-B
Mon 03:35:59 AM -32.0667 116.0784 245° Southwest 179 206 4,000 -900 Descending FlightAware ADS-B
Mon 03:36:12 AM -32.0676 116.0651 265° West 169 194 3,800 -1,000 Descending FlightAware ADS-B
Mon 03:36:29 AM -32.0646 116.0505 284° West 163 188 3,500 -878 Descending FlightAware ADS-B
Mon 03:36:53 AM -32.0599 116.0291 285° West 163 188 3,200 -818 Descending FlightAware ADS-B
Mon 03:37:13 AM -32.0564 116.0125 284° West 162 186 2,900 -900 Descending FlightAware ADS-B
Mon 03:37:33 AM -32.0525 115.9948 285° West 166 191 2,600 -900 Descending FlightAware ADS-B
Mon 03:37:53 AM -32.0486 115.9766 284° West 164 189 2,300 -789 Descending FlightAware ADS-B
Mon 03:38:11 AM -32.0454 115.9623 285° West 149 171 2,100 -808 Descending FlightAware ADS-B
Mon 03:38:45 AM -32.0337 115.9407 303° West 145 167 1,600 -837 Descending FlightAware ADS-B
Mon 03:38:54 AM -32.0274 115.9397 352° North 149 171 1,500 -462 Descending FlightAware ADS-B
Mon 03:38:58 AM -32.0249 115.9401 North 153 176 1,500 -857 Level FlightAware ADS-B
Mon 03:39:22 AM -32.0077 115.9454 15° North 148 170 1,100 -842 Descending FlightAware ADS-B
Mon 03:39:55 AM -31.9880 115.9510 13° North 159 183 700 -824 Descending FlightAware ADS-B
Mon 03:40:13 AM -31.9718 115.9559 14° North 151 174 400 -923 Descending FlightAware ADS-B
Mon 03:40:34 AM -31.9567 115.9602 14° North 148 170 100 -857 Descending FlightAware ADS-B

Login

Don't have an account? Register now (free) for customized features, flight alerts, and more!